sensor_id;sensor_type;location;lat;lon;timestamp;P1;durP1;ratioP1;P2;durP2;ratioP2
20034;SDS011;10178;48.034;9.800;2023-01-25T00:02:16;18.37;;;10.90;;
20034;SDS011;10178;48.034;9.800;2023-01-25T00:04:42;17.83;;;10.63;;
20034;SDS011;10178;48.034;9.800;2023-01-25T00:07:07;16.30;;;10.30;;
20034;SDS011;10178;48.034;9.800;2023-01-25T00:09:33;16.30;;;10.70;;
20034;SDS011;10178;48.034;9.800;2023-01-25T00:11:58;15.67;;;10.83;;
20034;SDS011;10178;48.034;9.800;2023-01-25T00:14:24;20.13;;;12.33;;
20034;SDS011;10178;48.034;9.800;2023-01-25T00:16:50;20.63;;;11.50;;
20034;SDS011;10178;48.034;9.800;2023-01-25T00:19:15;19.47;;;10.87;;
20034;SDS011;10178;48.034;9.800;2023-01-25T00:21:41;18.53;;;10.83;;
20034;SDS011;10178;48.034;9.800;2023-01-25T00:24:07;19.17;;;11.90;;
20034;SDS011;10178;48.034;9.800;2023-01-25T00:26:35;16.50;;;10.87;;
20034;SDS011;10178;48.034;9.800;2023-01-25T00:29:02;17.10;;;10.73;;
20034;SDS011;10178;48.034;9.800;2023-01-25T00:37:11;20.87;;;12.17;;
20034;SDS011;10178;48.034;9.800;2023-01-25T00:40:09;17.97;;;11.00;;
20034;SDS011;10178;48.034;9.800;2023-01-25T00:42:35;19.43;;;11.60;;
20034;SDS011;10178;48.034;9.800;2023-01-25T00:45:01;20.30;;;11.43;;
20034;SDS011;10178;48.034;9.800;2023-01-25T00:47:27;22.57;;;12.97;;
20034;SDS011;10178;48.034;9.800;2023-01-25T00:49:53;19.27;;;11.37;;
20034;SDS011;10178;48.034;9.800;2023-01-25T00:52:18;17.13;;;11.20;;
20034;SDS011;10178;48.034;9.800;2023-01-25T00:54:46;16.13;;;10.30;;
20034;SDS011;10178;48.034;9.800;2023-01-25T00:57:11;16.30;;;10.17;;
20034;SDS011;10178;48.034;9.800;2023-01-25T00:59:37;16.97;;;10.63;;
20034;SDS011;10178;48.034;9.800;2023-01-25T01:02:03;17.97;;;11.37;;
20034;SDS011;10178;48.034;9.800;2023-01-25T01:04:29;17.73;;;11.37;;
20034;SDS011;10178;48.034;9.800;2023-01-25T01:06:55;16.77;;;10.60;;
20034;SDS011;10178;48.034;9.800;2023-01-25T01:09:21;17.00;;;10.83;;
20034;SDS011;10178;48.034;9.800;2023-01-25T01:11:47;18.13;;;10.70;;
20034;SDS011;10178;48.034;9.800;2023-01-25T01:14:13;17.70;;;11.47;;
20034;SDS011;10178;48.034;9.800;2023-01-25T01:16:39;19.43;;;11.67;;
20034;SDS011;10178;48.034;9.800;2023-01-25T01:19:05;17.33;;;11.17;;
20034;SDS011;10178;48.034;9.800;2023-01-25T01:21:31;20.40;;;12.07;;
20034;SDS011;10178;48.034;9.800;2023-01-25T01:23:57;18.77;;;11.63;;
20034;SDS011;10178;48.034;9.800;2023-01-25T01:26:22;20.07;;;11.43;;
20034;SDS011;10178;48.034;9.800;2023-01-25T01:28:48;22.70;;;12.97;;
20034;SDS011;10178;48.034;9.800;2023-01-25T01:31:18;22.67;;;13.83;;
20034;SDS011;10178;48.034;9.800;2023-01-25T01:33:52;22.17;;;12.33;;
20034;SDS011;10178;48.034;9.800;2023-01-25T01:36:24;19.17;;;12.00;;
20034;SDS011;10178;48.034;9.800;2023-01-25T01:38:51;18.70;;;11.33;;
20034;SDS011;10178;48.034;9.800;2023-01-25T01:41:17;21.63;;;11.70;;
20034;SDS011;10178;48.034;9.800;2023-01-25T01:43:43;20.33;;;11.73;;
20034;SDS011;10178;48.034;9.800;2023-01-25T01:51:48;29.27;;;14.87;;
20034;SDS011;10178;48.034;9.800;2023-01-25T01:54:27;25.90;;;13.50;;
20034;SDS011;10178;48.034;9.800;2023-01-25T01:57:09;21.77;;;12.47;;
20034;SDS011;10178;48.034;9.800;2023-01-25T02:02:18;21.07;;;12.30;;
20034;SDS011;10178;48.034;9.800;2023-01-25T02:04:45;21.50;;;11.83;;
20034;SDS011;10178;48.034;9.800;2023-01-25T02:07:16;19.43;;;11.87;;
20034;SDS011;10178;48.034;9.800;2023-01-25T02:09:47;21.43;;;11.67;;
20034;SDS011;10178;48.034;9.800;2023-01-25T02:12:14;25.47;;;12.43;;
20034;SDS011;10178;48.034;9.800;2023-01-25T02:14:43;21.40;;;11.63;;
20034;SDS011;10178;48.034;9.800;2023-01-25T02:17:12;23.30;;;12.57;;
20034;SDS011;10178;48.034;9.800;2023-01-25T02:22:47;21.57;;;11.97;;
20034;SDS011;10178;48.034;9.800;2023-01-25T02:25:20;28.43;;;14.53;;
20034;SDS011;10178;48.034;9.800;2023-01-25T02:27:56;23.97;;;12.53;;
20034;SDS011;10178;48.034;9.800;2023-01-25T02:30:28;22.70;;;12.10;;
20034;SDS011;10178;48.034;9.800;2023-01-25T02:32:54;20.73;;;11.37;;
20034;SDS011;10178;48.034;9.800;2023-01-25T02:35:21;21.57;;;12.07;;
20034;SDS011;10178;48.034;9.800;2023-01-25T02:37:49;22.23;;;11.80;;
20034;SDS011;10178;48.034;9.800;2023-01-25T02:40:15;21.17;;;11.60;;
20034;SDS011;10178;48.034;9.800;2023-01-25T02:42:42;20.73;;;11.67;;
20034;SDS011;10178;48.034;9.800;2023-01-25T02:45:09;21.20;;;12.23;;
20034;SDS011;10178;48.034;9.800;2023-01-25T02:47:40;21.73;;;12.63;;
20034;SDS011;10178;48.034;9.800;2023-01-25T02:50:05;23.00;;;12.43;;
20034;SDS011;10178;48.034;9.800;2023-01-25T02:52:32;24.07;;;12.40;;
20034;SDS011;10178;48.034;9.800;2023-01-25T02:54:57;22.47;;;12.67;;
20034;SDS011;10178;48.034;9.800;2023-01-25T02:57:23;25.37;;;13.53;;
20034;SDS011;10178;48.034;9.800;2023-01-25T02:59:48;26.10;;;14.87;;
20034;SDS011;10178;48.034;9.800;2023-01-25T03:02:14;25.57;;;13.90;;
20034;SDS011;10178;48.034;9.800;2023-01-25T03:04:40;27.30;;;14.43;;
20034;SDS011;10178;48.034;9.800;2023-01-25T03:07:05;22.83;;;12.73;;
20034;SDS011;10178;48.034;9.800;2023-01-25T03:09:31;23.80;;;12.67;;
20034;SDS011;10178;48.034;9.800;2023-01-25T03:11:56;23.77;;;12.77;;
20034;SDS011;10178;48.034;9.800;2023-01-25T03:14:22;21.90;;;12.13;;
20034;SDS011;10178;48.034;9.800;2023-01-25T03:16:48;21.90;;;12.23;;
20034;SDS011;10178;48.034;9.800;2023-01-25T03:19:13;23.73;;;13.33;;
20034;SDS011;10178;48.034;9.800;2023-01-25T03:21:39;22.77;;;12.93;;
20034;SDS011;10178;48.034;9.800;2023-01-25T03:24:05;25.30;;;13.53;;
20034;SDS011;10178;48.034;9.800;2023-01-25T03:26:33;23.33;;;12.10;;
20034;SDS011;10178;48.034;9.800;2023-01-25T03:29:21;27.43;;;13.50;;
20034;SDS011;10178;48.034;9.800;2023-01-25T03:31:47;27.23;;;14.00;;
20034;SDS011;10178;48.034;9.800;2023-01-25T03:34:12;23.77;;;12.57;;
20034;SDS011;10178;48.034;9.800;2023-01-25T03:36:38;23.90;;;12.53;;
20034;SDS011;10178;48.034;9.800;2023-01-25T03:39:04;23.27;;;12.33;;
20034;SDS011;10178;48.034;9.800;2023-01-25T03:41:29;26.10;;;13.07;;
20034;SDS011;10178;48.034;9.800;2023-01-25T03:43:55;21.23;;;12.23;;
20034;SDS011;10178;48.034;9.800;2023-01-25T03:46:20;20.70;;;11.53;;
20034;SDS011;10178;48.034;9.800;2023-01-25T03:48:46;22.07;;;12.33;;
20034;SDS011;10178;48.034;9.800;2023-01-25T03:51:11;19.67;;;11.20;;
20034;SDS011;10178;48.034;9.800;2023-01-25T03:53:37;22.80;;;12.37;;
20034;SDS011;10178;48.034;9.800;2023-01-25T03:56:07;22.03;;;12.50;;
20034;SDS011;10178;48.034;9.800;2023-01-25T03:58:35;19.23;;;10.53;;
20034;SDS011;10178;48.034;9.800;2023-01-25T04:01:02;22.30;;;11.40;;
20034;SDS011;10178;48.034;9.800;2023-01-25T04:03:29;19.63;;;12.40;;
20034;SDS011;10178;48.034;9.800;2023-01-25T04:05:56;23.87;;;12.80;;
20034;SDS011;10178;48.034;9.800;2023-01-25T04:08:22;23.93;;;13.93;;
20034;SDS011;10178;48.034;9.800;2023-01-25T04:11:04;19.87;;;11.87;;
20034;SDS011;10178;48.034;9.800;2023-01-25T04:13:32;21.43;;;11.50;;
20034;SDS011;10178;48.034;9.800;2023-01-25T04:16:04;23.33;;;11.90;;
20034;SDS011;10178;48.034;9.800;2023-01-25T04:18:31;20.20;;;11.47;;
20034;SDS011;10178;48.034;9.800;2023-01-25T04:20:57;22.90;;;12.77;;
20034;SDS011;10178;48.034;9.800;2023-01-25T04:23:24;21.00;;;11.50;;
20034;SDS011;10178;48.034;9.800;2023-01-25T04:25:54;21.03;;;11.37;;
20034;SDS011;10178;48.034;9.800;2023-01-25T04:28:24;22.37;;;12.00;;
20034;SDS011;10178;48.034;9.800;2023-01-25T04:30:52;19.47;;;11.60;;
20034;SDS011;10178;48.034;9.800;2023-01-25T04:33:18;19.43;;;10.33;;
20034;SDS011;10178;48.034;9.800;2023-01-25T04:35:44;20.63;;;11.50;;
20034;SDS011;10178;48.034;9.800;2023-01-25T04:38:10;20.57;;;11.73;;
20034;SDS011;10178;48.034;9.800;2023-01-25T04:40:36;18.70;;;11.20;;
20034;SDS011;10178;48.034;9.800;2023-01-25T04:43:02;20.43;;;11.77;;
20034;SDS011;10178;48.034;9.800;2023-01-25T04:45:28;18.23;;;10.67;;
20034;SDS011;10178;48.034;9.800;2023-01-25T04:48:01;18.90;;;11.40;;
20034;SDS011;10178;48.034;9.800;2023-01-25T04:50:28;19.23;;;11.43;;
20034;SDS011;10178;48.034;9.800;2023-01-25T04:52:54;24.70;;;13.63;;
20034;SDS011;10178;48.034;9.800;2023-01-25T04:55:20;21.77;;;12.20;;
20034;SDS011;10178;48.034;9.800;2023-01-25T04:57:49;21.13;;;12.43;;
20034;SDS011;10178;48.034;9.800;2023-01-25T05:00:15;24.93;;;13.47;;
20034;SDS011;10178;48.034;9.800;2023-01-25T05:02:42;25.53;;;13.07;;
20034;SDS011;10178;48.034;9.800;2023-01-25T05:05:07;23.73;;;11.87;;
20034;SDS011;10178;48.034;9.800;2023-01-25T05:07:33;20.20;;;11.67;;
20034;SDS011;10178;48.034;9.800;2023-01-25T05:09:59;21.20;;;11.27;;
20034;SDS011;10178;48.034;9.800;2023-01-25T05:12:25;19.50;;;11.10;;
20034;SDS011;10178;48.034;9.800;2023-01-25T05:14:50;20.00;;;11.27;;
20034;SDS011;10178;48.034;9.800;2023-01-25T05:17:16;20.40;;;10.80;;
20034;SDS011;10178;48.034;9.800;2023-01-25T05:19:41;20.83;;;11.93;;
20034;SDS011;10178;48.034;9.800;2023-01-25T05:22:10;23.70;;;13.23;;
20034;SDS011;10178;48.034;9.800;2023-01-25T05:24:38;20.20;;;11.40;;
20034;SDS011;10178;48.034;9.800;2023-01-25T05:27:06;20.83;;;11.60;;
20034;SDS011;10178;48.034;9.800;2023-01-25T05:29:33;20.90;;;11.40;;
20034;SDS011;10178;48.034;9.800;2023-01-25T05:32:14;20.60;;;11.87;;
20034;SDS011;10178;48.034;9.800;2023-01-25T05:34:41;21.10;;;12.43;;
20034;SDS011;10178;48.034;9.800;2023-01-25T05:37:08;21.23;;;12.00;;
20034;SDS011;10178;48.034;9.800;2023-01-25T05:39:35;19.83;;;12.37;;
20034;SDS011;10178;48.034;9.800;2023-01-25T05:42:01;21.13;;;12.20;;
20034;SDS011;10178;48.034;9.800;2023-01-25T05:44:26;21.33;;;12.40;;
20034;SDS011;10178;48.034;9.800;2023-01-25T05:46:54;21.73;;;12.10;;
20034;SDS011;10178;48.034;9.800;2023-01-25T05:49:20;21.07;;;12.67;;
20034;SDS011;10178;48.034;9.800;2023-01-25T05:51:46;24.80;;;13.17;;
20034;SDS011;10178;48.034;9.800;2023-01-25T05:54:13;21.10;;;12.27;;
20034;SDS011;10178;48.034;9.800;2023-01-25T05:56:41;24.50;;;13.47;;
20034;SDS011;10178;48.034;9.800;2023-01-25T05:59:08;22.60;;;12.93;;
20034;SDS011;10178;48.034;9.800;2023-01-25T06:01:35;26.93;;;13.20;;
20034;SDS011;10178;48.034;9.800;2023-01-25T06:04:01;20.67;;;12.40;;
20034;SDS011;10178;48.034;9.800;2023-01-25T06:06:27;29.23;;;14.13;;
20034;SDS011;10178;48.034;9.800;2023-01-25T06:08:53;24.70;;;13.23;;
20034;SDS011;10178;48.034;9.800;2023-01-25T06:11:19;29.10;;;15.87;;
20034;SDS011;10178;48.034;9.800;2023-01-25T06:13:47;25.00;;;12.57;;
20034;SDS011;10178;48.034;9.800;2023-01-25T06:16:13;24.17;;;14.13;;
20034;SDS011;10178;48.034;9.800;2023-01-25T06:18:40;23.33;;;12.97;;
20034;SDS011;10178;48.034;9.800;2023-01-25T06:21:06;23.07;;;12.53;;
20034;SDS011;10178;48.034;9.800;2023-01-25T06:23:31;23.87;;;12.90;;
20034;SDS011;10178;48.034;9.800;2023-01-25T06:25:58;24.37;;;12.60;;
20034;SDS011;10178;48.034;9.800;2023-01-25T06:28:29;22.37;;;12.77;;
20034;SDS011;10178;48.034;9.800;2023-01-25T06:30:56;22.70;;;12.40;;
20034;SDS011;10178;48.034;9.800;2023-01-25T06:33:34;22.93;;;12.10;;
20034;SDS011;10178;48.034;9.800;2023-01-25T06:36:05;23.23;;;11.93;;
20034;SDS011;10178;48.034;9.800;2023-01-25T06:38:32;22.27;;;12.07;;
20034;SDS011;10178;48.034;9.800;2023-01-25T06:41:01;20.60;;;11.90;;
20034;SDS011;10178;48.034;9.800;2023-01-25T06:43:28;24.60;;;12.17;;
20034;SDS011;10178;48.034;9.800;2023-01-25T06:46:05;20.17;;;11.17;;
20034;SDS011;10178;48.034;9.800;2023-01-25T06:48:32;20.37;;;11.50;;
20034;SDS011;10178;48.034;9.800;2023-01-25T06:50:59;22.73;;;11.37;;
20034;SDS011;10178;48.034;9.800;2023-01-25T06:53:28;21.00;;;11.90;;
20034;SDS011;10178;48.034;9.800;2023-01-25T06:55:59;22.10;;;12.07;;
20034;SDS011;10178;48.034;9.800;2023-01-25T06:58:29;22.20;;;12.23;;
20034;SDS011;10178;48.034;9.800;2023-01-25T07:01:00;18.70;;;10.83;;
20034;SDS011;10178;48.034;9.800;2023-01-25T07:03:28;20.43;;;11.47;;
20034;SDS011;10178;48.034;9.800;2023-01-25T07:06:02;20.00;;;11.20;;
20034;SDS011;10178;48.034;9.800;2023-01-25T07:08:29;20.27;;;10.87;;
20034;SDS011;10178;48.034;9.800;2023-01-25T07:10:57;21.20;;;11.40;;
20034;SDS011;10178;48.034;9.800;2023-01-25T07:13:28;18.63;;;10.90;;
20034;SDS011;10178;48.034;9.800;2023-01-25T07:15:55;21.30;;;11.80;;
20034;SDS011;10178;48.034;9.800;2023-01-25T07:18:21;20.17;;;11.10;;
20034;SDS011;10178;48.034;9.800;2023-01-25T07:20:48;20.07;;;10.30;;
20034;SDS011;10178;48.034;9.800;2023-01-25T07:23:14;17.77;;;9.63;;
20034;SDS011;10178;48.034;9.800;2023-01-25T07:25:44;18.20;;;10.33;;
20034;SDS011;10178;48.034;9.800;2023-01-25T07:28:14;17.67;;;10.43;;
20034;SDS011;10178;48.034;9.800;2023-01-25T07:30:40;20.17;;;11.17;;
20034;SDS011;10178;48.034;9.800;2023-01-25T07:33:07;18.43;;;9.90;;
20034;SDS011;10178;48.034;9.800;2023-01-25T07:35:33;17.87;;;10.70;;
20034;SDS011;10178;48.034;9.800;2023-01-25T07:37:59;18.50;;;9.37;;
20034;SDS011;10178;48.034;9.800;2023-01-25T07:40:24;19.17;;;10.07;;
20034;SDS011;10178;48.034;9.800;2023-01-25T07:42:50;18.47;;;10.43;;
20034;SDS011;10178;48.034;9.800;2023-01-25T07:45:16;16.77;;;9.97;;
20034;SDS011;10178;48.034;9.800;2023-01-25T07:47:42;18.23;;;10.50;;
20034;SDS011;10178;48.034;9.800;2023-01-25T07:50:08;17.50;;;9.80;;
20034;SDS011;10178;48.034;9.800;2023-01-25T07:52:34;20.07;;;11.00;;
20034;SDS011;10178;48.034;9.800;2023-01-25T07:55:00;15.60;;;9.97;;
20034;SDS011;10178;48.034;9.800;2023-01-25T07:57:26;18.43;;;10.73;;
20034;SDS011;10178;48.034;9.800;2023-01-25T07:59:52;16.23;;;8.87;;
20034;SDS011;10178;48.034;9.800;2023-01-25T08:02:18;16.50;;;9.50;;
20034;SDS011;10178;48.034;9.800;2023-01-25T08:04:44;17.67;;;10.37;;
20034;SDS011;10178;48.034;9.800;2023-01-25T08:07:11;16.13;;;10.10;;
20034;SDS011;10178;48.034;9.800;2023-01-25T08:09:37;19.17;;;9.93;;
20034;SDS011;10178;48.034;9.800;2023-01-25T08:12:03;18.13;;;9.00;;
20034;SDS011;10178;48.034;9.800;2023-01-25T08:14:29;18.70;;;9.87;;
20034;SDS011;10178;48.034;9.800;2023-01-25T08:16:54;16.23;;;9.80;;
20034;SDS011;10178;48.034;9.800;2023-01-25T08:19:20;17.77;;;9.50;;
20034;SDS011;10178;48.034;9.800;2023-01-25T08:21:46;17.77;;;9.73;;
20034;SDS011;10178;48.034;9.800;2023-01-25T08:24:11;17.93;;;9.73;;
20034;SDS011;10178;48.034;9.800;2023-01-25T08:26:37;18.93;;;9.80;;
20034;SDS011;10178;48.034;9.800;2023-01-25T08:29:03;15.77;;;9.03;;
20034;SDS011;10178;48.034;9.800;2023-01-25T08:31:30;16.07;;;9.33;;
20034;SDS011;10178;48.034;9.800;2023-01-25T08:33:57;16.00;;;9.27;;
20034;SDS011;10178;48.034;9.800;2023-01-25T08:36:24;15.93;;;8.93;;
20034;SDS011;10178;48.034;9.800;2023-01-25T08:38:52;18.80;;;9.47;;
20034;SDS011;10178;48.034;9.800;2023-01-25T08:41:22;16.57;;;9.63;;
20034;SDS011;10178;48.034;9.800;2023-01-25T08:43:50;21.33;;;10.77;;
20034;SDS011;10178;48.034;9.800;2023-01-25T08:46:17;19.93;;;10.43;;
20034;SDS011;10178;48.034;9.800;2023-01-25T08:48:43;18.67;;;9.97;;
20034;SDS011;10178;48.034;9.800;2023-01-25T08:51:15;17.03;;;9.37;;
20034;SDS011;10178;48.034;9.800;2023-01-25T08:53:41;14.33;;;9.10;;
20034;SDS011;10178;48.034;9.800;2023-01-25T08:56:08;15.77;;;9.03;;
20034;SDS011;10178;48.034;9.800;2023-01-25T08:58:36;17.70;;;9.77;;
20034;SDS011;10178;48.034;9.800;2023-01-25T09:01:03;18.90;;;9.83;;
20034;SDS011;10178;48.034;9.800;2023-01-25T09:03:30;18.67;;;9.43;;
20034;SDS011;10178;48.034;9.800;2023-01-25T09:05:59;15.20;;;9.10;;
20034;SDS011;10178;48.034;9.800;2023-01-25T09:08:25;15.23;;;8.60;;
20034;SDS011;10178;48.034;9.800;2023-01-25T09:10:50;16.17;;;8.80;;
20034;SDS011;10178;48.034;9.800;2023-01-25T09:13:16;16.57;;;8.30;;
20034;SDS011;10178;48.034;9.800;2023-01-25T09:15:41;15.70;;;8.93;;
20034;SDS011;10178;48.034;9.800;2023-01-25T09:18:07;14.77;;;8.53;;
20034;SDS011;10178;48.034;9.800;2023-01-25T09:20:34;16.83;;;9.50;;
20034;SDS011;10178;48.034;9.800;2023-01-25T09:23:03;14.60;;;8.47;;
20034;SDS011;10178;48.034;9.800;2023-01-25T09:25:29;16.13;;;9.17;;
20034;SDS011;10178;48.034;9.800;2023-01-25T09:27:54;14.80;;;8.83;;
20034;SDS011;10178;48.034;9.800;2023-01-25T09:30:20;15.60;;;9.27;;
20034;SDS011;10178;48.034;9.800;2023-01-25T09:32:49;15.03;;;8.30;;
20034;SDS011;10178;48.034;9.800;2023-01-25T09:35:15;15.40;;;8.60;;
20034;SDS011;10178;48.034;9.800;2023-01-25T09:37:41;14.27;;;8.40;;
20034;SDS011;10178;48.034;9.800;2023-01-25T09:40:40;12.33;;;7.70;;
20034;SDS011;10178;48.034;9.800;2023-01-25T09:43:04;17.70;;;9.40;;
20034;SDS011;10178;48.034;9.800;2023-01-25T09:45:38;15.60;;;8.27;;
20034;SDS011;10178;48.034;9.800;2023-01-25T09:51:05;15.60;;;8.57;;
20034;SDS011;10178;48.034;9.800;2023-01-25T09:53:41;14.93;;;8.67;;
20034;SDS011;10178;48.034;9.800;2023-01-25T09:56:22;14.80;;;8.67;;
20034;SDS011;10178;48.034;9.800;2023-01-25T09:58:52;19.00;;;9.53;;
20034;SDS011;10178;48.034;9.800;2023-01-25T10:04:25;17.00;;;9.13;;
20034;SDS011;10178;48.034;9.800;2023-01-25T10:07:10;15.87;;;9.00;;
20034;SDS011;10178;48.034;9.800;2023-01-25T10:09:46;15.50;;;8.57;;
20034;SDS011;10178;48.034;9.800;2023-01-25T10:12:20;15.83;;;9.23;;
20034;SDS011;10178;48.034;9.800;2023-01-25T10:14:48;18.77;;;9.53;;
20034;SDS011;10178;48.034;9.800;2023-01-25T10:17:26;18.47;;;10.03;;
20034;SDS011;10178;48.034;9.800;2023-01-25T10:22:50;16.00;;;9.27;;
20034;SDS011;10178;48.034;9.800;2023-01-25T10:28:14;18.10;;;9.20;;
20034;SDS011;10178;48.034;9.800;2023-01-25T10:30:46;17.50;;;10.07;;
20034;SDS011;10178;48.034;9.800;2023-01-25T10:33:31;16.53;;;8.80;;
20034;SDS011;10178;48.034;9.800;2023-01-25T10:36:01;16.80;;;9.73;;
20034;SDS011;10178;48.034;9.800;2023-01-25T10:38:31;16.63;;;9.47;;
20034;SDS011;10178;48.034;9.800;2023-01-25T10:41:14;15.47;;;8.87;;
20034;SDS011;10178;48.034;9.800;2023-01-25T10:43:54;19.37;;;10.50;;
20034;SDS011;10178;48.034;9.800;2023-01-25T10:46:46;17.23;;;9.83;;
20034;SDS011;10178;48.034;9.800;2023-01-25T10:52:12;16.53;;;8.73;;
20034;SDS011;10178;48.034;9.800;2023-01-25T10:54:42;16.53;;;9.30;;
20034;SDS011;10178;48.034;9.800;2023-01-25T10:57:20;15.30;;;9.40;;
20034;SDS011;10178;48.034;9.800;2023-01-25T10:59:47;17.33;;;8.87;;
20034;SDS011;10178;48.034;9.800;2023-01-25T11:07:52;17.63;;;9.40;;
20034;SDS011;10178;48.034;9.800;2023-01-25T11:13:18;18.00;;;9.50;;
20034;SDS011;10178;48.034;9.800;2023-01-25T11:15:51;16.80;;;9.67;;
20034;SDS011;10178;48.034;9.800;2023-01-25T11:18:23;18.30;;;9.20;;
20034;SDS011;10178;48.034;9.800;2023-01-25T11:21:12;15.43;;;9.53;;
20034;SDS011;10178;48.034;9.800;2023-01-25T11:23:40;13.80;;;8.23;;
20034;SDS011;10178;48.034;9.800;2023-01-25T11:26:10;15.13;;;8.77;;
20034;SDS011;10178;48.034;9.800;2023-01-25T11:28:43;18.93;;;11.50;;
20034;SDS011;10178;48.034;9.800;2023-01-25T11:31:11;17.80;;;9.23;;
20034;SDS011;10178;48.034;9.800;2023-01-25T11:33:40;15.40;;;9.27;;
20034;SDS011;10178;48.034;9.800;2023-01-25T11:38:47;18.30;;;10.10;;
20034;SDS011;10178;48.034;9.800;2023-01-25T11:41:30;16.33;;;9.53;;
20034;SDS011;10178;48.034;9.800;2023-01-25T11:46:42;18.20;;;8.60;;
20034;SDS011;10178;48.034;9.800;2023-01-25T11:49:34;15.57;;;8.40;;
20034;SDS011;10178;48.034;9.800;2023-01-25T11:54:49;17.87;;;9.47;;
20034;SDS011;10178;48.034;9.800;2023-01-25T11:57:35;18.37;;;9.13;;
20034;SDS011;10178;48.034;9.800;2023-01-25T12:08:34;17.83;;;9.87;;
20034;SDS011;10178;48.034;9.800;2023-01-25T12:24:33;17.83;;;9.80;;
20034;SDS011;10178;48.034;9.800;2023-01-25T12:27:20;16.00;;;9.10;;
20034;SDS011;10178;48.034;9.800;2023-01-25T12:29:57;17.37;;;9.70;;
20034;SDS011;10178;48.034;9.800;2023-01-25T12:32:43;15.80;;;9.10;;
20034;SDS011;10178;48.034;9.800;2023-01-25T12:35:29;16.00;;;9.57;;
20034;SDS011;10178;48.034;9.800;2023-01-25T12:38:27;19.63;;;9.93;;
20034;SDS011;10178;48.034;9.800;2023-01-25T12:44:14;19.60;;;9.93;;
20034;SDS011;10178;48.034;9.800;2023-01-25T12:52:32;19.67;;;9.63;;
20034;SDS011;10178;48.034;9.800;2023-01-25T12:55:02;23.43;;;11.73;;
20034;SDS011;10178;48.034;9.800;2023-01-25T12:57:35;18.20;;;10.27;;
20034;SDS011;10178;48.034;9.800;2023-01-25T13:08:35;19.00;;;9.77;;
20034;SDS011;10178;48.034;9.800;2023-01-25T13:11:32;19.53;;;9.70;;
20034;SDS011;10178;48.034;9.800;2023-01-25T13:14:17;17.87;;;9.47;;
20034;SDS011;10178;48.034;9.800;2023-01-25T13:16:50;18.40;;;9.73;;
20034;SDS011;10178;48.034;9.800;2023-01-25T13:19:20;20.40;;;10.03;;
20034;SDS011;10178;48.034;9.800;2023-01-25T13:22:03;22.10;;;9.83;;
20034;SDS011;10178;48.034;9.800;2023-01-25T13:24:29;17.63;;;9.33;;
20034;SDS011;10178;48.034;9.800;2023-01-25T13:32:13;20.43;;;9.97;;
20034;SDS011;10178;48.034;9.800;2023-01-25T13:34:55;18.23;;;9.73;;
20034;SDS011;10178;48.034;9.800;2023-01-25T13:40:05;18.17;;;10.33;;
20034;SDS011;10178;48.034;9.800;2023-01-25T13:42:57;18.60;;;10.50;;
20034;SDS011;10178;48.034;9.800;2023-01-25T13:45:24;17.53;;;9.27;;
20034;SDS011;10178;48.034;9.800;2023-01-25T13:48:02;19.50;;;9.33;;
20034;SDS011;10178;48.034;9.800;2023-01-25T13:50:35;17.47;;;9.40;;
20034;SDS011;10178;48.034;9.800;2023-01-25T13:55:39;20.07;;;9.93;;
20034;SDS011;10178;48.034;9.800;2023-01-25T14:03:32;17.87;;;9.27;;
20034;SDS011;10178;48.034;9.800;2023-01-25T14:08:47;19.20;;;9.27;;
20034;SDS011;10178;48.034;9.800;2023-01-25T14:11:18;19.47;;;9.43;;
20034;SDS011;10178;48.034;9.800;2023-01-25T14:13:55;16.53;;;9.37;;
20034;SDS011;10178;48.034;9.800;2023-01-25T14:16:24;17.73;;;8.93;;
20034;SDS011;10178;48.034;9.800;2023-01-25T14:18:51;24.57;;;10.03;;
20034;SDS011;10178;48.034;9.800;2023-01-25T14:23:44;19.50;;;9.80;;
20034;SDS011;10178;48.034;9.800;2023-01-25T14:26:18;19.10;;;10.43;;
20034;SDS011;10178;48.034;9.800;2023-01-25T14:28:45;20.67;;;9.93;;
20034;SDS011;10178;48.034;9.800;2023-01-25T14:31:16;16.47;;;9.07;;
20034;SDS011;10178;48.034;9.800;2023-01-25T14:33:47;20.77;;;10.43;;
20034;SDS011;10178;48.034;9.800;2023-01-25T14:36:18;18.80;;;10.67;;
20034;SDS011;10178;48.034;9.800;2023-01-25T14:38:45;19.47;;;9.50;;
20034;SDS011;10178;48.034;9.800;2023-01-25T14:41:12;17.67;;;9.10;;
20034;SDS011;10178;48.034;9.800;2023-01-25T14:44:01;20.90;;;10.23;;
20034;SDS011;10178;48.034;9.800;2023-01-25T14:46:29;20.33;;;10.53;;
20034;SDS011;10178;48.034;9.800;2023-01-25T14:52:12;19.33;;;10.30;;
20034;SDS011;10178;48.034;9.800;2023-01-25T14:54:43;20.20;;;9.40;;
20034;SDS011;10178;48.034;9.800;2023-01-25T14:57:32;16.40;;;9.13;;
20034;SDS011;10178;48.034;9.800;2023-01-25T15:00:01;17.90;;;9.40;;
20034;SDS011;10178;48.034;9.800;2023-01-25T15:05:05;18.43;;;9.13;;
20034;SDS011;10178;48.034;9.800;2023-01-25T15:10:14;18.00;;;10.00;;
20034;SDS011;10178;48.034;9.800;2023-01-25T15:15:24;15.70;;;9.03;;
20034;SDS011;10178;48.034;9.800;2023-01-25T15:17:51;23.03;;;10.53;;
20034;SDS011;10178;48.034;9.800;2023-01-25T15:20:28;17.63;;;8.93;;
20034;SDS011;10178;48.034;9.800;2023-01-25T15:23:04;13.93;;;8.10;;
20034;SDS011;10178;48.034;9.800;2023-01-25T15:28:22;17.53;;;9.30;;
20034;SDS011;10178;48.034;9.800;2023-01-25T15:30:50;18.20;;;9.37;;
20034;SDS011;10178;48.034;9.800;2023-01-25T15:35:49;17.37;;;9.03;;
20034;SDS011;10178;48.034;9.800;2023-01-25T15:38:15;17.97;;;9.87;;
20034;SDS011;10178;48.034;9.800;2023-01-25T15:40:42;21.40;;;10.77;;
20034;SDS011;10178;48.034;9.800;2023-01-25T15:43:11;20.07;;;9.77;;
20034;SDS011;10178;48.034;9.800;2023-01-25T15:45:38;19.07;;;10.20;;
20034;SDS011;10178;48.034;9.800;2023-01-25T15:48:07;20.73;;;10.67;;
20034;SDS011;10178;48.034;9.800;2023-01-25T15:50:39;23.07;;;10.53;;
20034;SDS011;10178;48.034;9.800;2023-01-25T15:53:05;21.93;;;11.10;;
20034;SDS011;10178;48.034;9.800;2023-01-25T15:55:31;20.13;;;9.70;;
20034;SDS011;10178;48.034;9.800;2023-01-25T15:57:57;21.50;;;11.23;;
20034;SDS011;10178;48.034;9.800;2023-01-25T16:00:23;22.43;;;10.73;;
20034;SDS011;10178;48.034;9.800;2023-01-25T16:02:48;20.30;;;10.07;;
20034;SDS011;10178;48.034;9.800;2023-01-25T16:05:14;18.40;;;9.27;;
20034;SDS011;10178;48.034;9.800;2023-01-25T16:07:40;19.47;;;9.47;;
20034;SDS011;10178;48.034;9.800;2023-01-25T16:10:18;18.50;;;10.03;;
20034;SDS011;10178;48.034;9.800;2023-01-25T16:12:46;19.93;;;9.90;;
20034;SDS011;10178;48.034;9.800;2023-01-25T16:15:12;16.67;;;9.57;;
20034;SDS011;10178;48.034;9.800;2023-01-25T16:17:38;16.20;;;9.03;;
20034;SDS011;10178;48.034;9.800;2023-01-25T16:20:04;19.93;;;9.43;;
20034;SDS011;10178;48.034;9.800;2023-01-25T16:22:31;20.53;;;10.20;;
20034;SDS011;10178;48.034;9.800;2023-01-25T16:24:57;18.13;;;9.23;;
20034;SDS011;10178;48.034;9.800;2023-01-25T16:27:22;19.07;;;9.33;;
20034;SDS011;10178;48.034;9.800;2023-01-25T16:29:59;22.80;;;11.87;;
20034;SDS011;10178;48.034;9.800;2023-01-25T16:32:26;17.17;;;9.10;;
20034;SDS011;10178;48.034;9.800;2023-01-25T16:34:51;23.17;;;10.53;;
20034;SDS011;10178;48.034;9.800;2023-01-25T16:37:17;19.10;;;10.00;;
20034;SDS011;10178;48.034;9.800;2023-01-25T16:39:43;15.60;;;9.07;;
20034;SDS011;10178;48.034;9.800;2023-01-25T16:42:09;18.90;;;9.57;;
20034;SDS011;10178;48.034;9.800;2023-01-25T16:44:35;18.13;;;9.77;;